createdAt,value
2023-02-07T00:03:34.250Z,100597.25
2023-02-07T00:08:36.799Z,100591.81
2023-02-07T00:13:38.582Z,100587.06
2023-02-07T00:18:40.516Z,100595.13
2023-02-07T00:23:43.475Z,100601.78
2023-02-07T00:28:45.207Z,100597.97
2023-02-07T00:33:48.810Z,100594.59
2023-02-07T00:38:51.580Z,100601.44
2023-02-07T00:43:53.364Z,100612.09
2023-02-07T00:48:55.661Z,100610.38
2023-02-07T00:53:58.036Z,100615.03
2023-02-07T00:59:00.143Z,100622.53
2023-02-07T01:04:01.844Z,100622.00
2023-02-07T01:09:05.863Z,100618.91
2023-02-07T01:14:07.528Z,100613.03
2023-02-07T01:19:10.739Z,100635.50
2023-02-07T01:24:12.393Z,100643.22
2023-02-07T01:29:15.961Z,100632.91
2023-02-07T01:34:17.594Z,100634.59
2023-02-07T01:39:19.357Z,100640.06
2023-02-07T01:44:24.007Z,100634.22
2023-02-07T01:49:29.539Z,100634.22
2023-02-07T01:54:33.698Z,100634.56
2023-02-07T01:59:38.888Z,100627.63
2023-02-07T02:04:41.207Z,100635.84
2023-02-07T02:09:42.894Z,100647.66
2023-02-07T02:14:59.413Z,100638.28
2023-02-07T02:20:06.803Z,100651.00
2023-02-07T02:25:11.437Z,100651.00
2023-02-07T02:30:28.219Z,100651.22
2023-02-07T02:35:57.695Z,100649.38
2023-02-07T02:41:11.537Z,100656.09
2023-02-07T02:46:21.298Z,100645.06
2023-02-07T02:51:23.191Z,100663.91
2023-02-07T02:56:42.777Z,100666.22
2023-02-07T03:02:13.297Z,100662.53
2023-02-07T03:07:33.268Z,100668.41
2023-02-07T03:12:47.621Z,100668.97
2023-02-07T03:18:04.873Z,100674.25
2023-02-07T03:23:09.031Z,100654.22
2023-02-07T03:28:13.092Z,100654.88
2023-02-07T03:33:15.849Z,100666.72
2023-02-07T03:38:17.600Z,100658.19
2023-02-07T03:43:30.691Z,100648.06
2023-02-07T03:48:32.369Z,100628.09
2023-02-07T03:53:35.246Z,100632.94
2023-02-07T03:58:36.891Z,100611.75
2023-02-07T04:03:38.555Z,100611.16
2023-02-07T04:08:40.381Z,100596.34
2023-02-07T04:13:42.069Z,100586.91
2023-02-07T04:18:43.726Z,100578.81
2023-02-07T04:23:45.447Z,100567.38
2023-02-07T04:28:47.063Z,100563.97
2023-02-07T04:33:49.136Z,100566.09
2023-02-07T04:38:51.071Z,100568.72
2023-02-07T04:43:53.266Z,100569.63
2023-02-07T04:48:54.921Z,100582.19
2023-02-07T04:53:56.884Z,100591.06
2023-02-07T04:58:58.573Z,100610.03
2023-02-07T05:04:00.242Z,100620.13
2023-02-07T05:09:01.907Z,100616.22
2023-02-07T05:14:03.831Z,100630.59
2023-02-07T05:19:05.543Z,100633.13
2023-02-07T05:24:07.618Z,100638.28
2023-02-07T05:29:09.384Z,100631.22
2023-02-07T05:34:11.035Z,100635.75
2023-02-07T05:39:12.656Z,100640.00
2023-02-07T05:44:14.342Z,100636.44
2023-02-07T05:49:16.060Z,100635.75
2023-02-07T05:54:17.775Z,100642.25
2023-02-07T05:59:20.892Z,100628.28
2023-02-07T06:04:23.798Z,100640.94
2023-02-07T06:09:25.552Z,100651.75
2023-02-07T06:14:27.600Z,100643.66
2023-02-07T06:19:29.245Z,100646.00
2023-02-07T06:24:30.877Z,100640.28
2023-02-07T06:29:32.705Z,100648.22
2023-02-07T06:34:34.519Z,100646.34
2023-02-07T06:39:36.348Z,100648.75
2023-02-07T06:44:38.004Z,100656.00
2023-02-07T06:49:39.636Z,100658.53
2023-02-07T06:54:41.437Z,100655.69
2023-02-07T06:59:43.314Z,100663.59
2023-02-07T07:04:45.009Z,100658.59
2023-02-07T07:09:46.831Z,100659.66
2023-02-07T07:14:48.584Z,100654.06
2023-02-07T07:19:50.245Z,100655.66
2023-02-07T07:24:51.950Z,100657.13
2023-02-07T07:29:53.643Z,100661.66
2023-02-07T07:34:55.487Z,100659.53
2023-02-07T07:39:57.654Z,100662.28
2023-02-07T07:44:59.830Z,100654.94
2023-02-07T07:50:01.544Z,100645.06
2023-02-07T07:55:03.353Z,100644.81
2023-02-07T08:00:06.482Z,100634.28
2023-02-07T08:05:10.382Z,100641.84
2023-02-07T08:10:14.260Z,100641.69
2023-02-07T08:15:16.068Z,100641.13
2023-02-07T08:20:18.180Z,100630.25
2023-02-07T08:25:19.881Z,100641.34
2023-02-07T08:30:21.981Z,100627.66
2023-02-07T08:35:23.707Z,100636.34
2023-02-07T08:40:26.365Z,100632.66
2023-02-07T08:45:28.298Z,100625.97
2023-02-07T08:50:30.097Z,100627.22
2023-02-07T08:55:31.949Z,100625.81
2023-02-07T09:00:36.186Z,100606.16
2023-02-07T09:05:37.909Z,100603.19
2023-02-07T09:10:39.883Z,100604.97
2023-02-07T09:15:41.885Z,100611.97
2023-02-07T09:20:44.367Z,100611.25
2023-02-07T09:25:51.349Z,100612.16
2023-02-07T09:30:54.886Z,100607.03
2023-02-07T09:35:57.987Z,100603.50
2023-02-07T09:41:00.121Z,100602.81
2023-02-07T09:46:28.124Z,100616.84
2023-02-07T09:51:30.845Z,100631.91
2023-02-07T09:56:34.960Z,100620.25
2023-02-07T10:01:43.414Z,100597.69
2023-02-07T10:06:50.480Z,100586.31
2023-02-07T10:12:00.300Z,100577.59
2023-02-07T10:17:16.541Z,100580.97
2023-02-07T10:22:53.477Z,100570.72
2023-02-07T10:28:13.350Z,100566.66
2023-02-07T10:33:26.225Z,100563.28
2023-02-07T10:39:07.649Z,100560.59
2023-02-07T10:44:13.466Z,100548.25
2023-02-07T10:49:25.866Z,100549.66
2023-02-07T10:54:27.766Z,100536.50
2023-02-07T10:59:32.342Z,100532.69
2023-02-07T11:04:38.969Z,100537.69
2023-02-07T11:09:42.142Z,100539.50
2023-02-07T11:14:59.726Z,100543.19
2023-02-07T11:20:06.999Z,100537.66
2023-02-07T11:25:08.959Z,100541.19
2023-02-07T11:30:22.218Z,100534.09
2023-02-07T11:35:24.104Z,100530.75
2023-02-07T11:40:36.697Z,100530.94
2023-02-07T11:45:42.585Z,100531.69
2023-02-07T11:50:48.340Z,100518.34
2023-02-07T11:56:05.641Z,100509.78
2023-02-07T12:01:08.892Z,100484.44
2023-02-07T12:06:16.828Z,100475.91
2023-02-07T12:11:25.846Z,100471.31
2023-02-07T12:16:37.055Z,100458.16
2023-02-07T12:21:56.879Z,100447.19
2023-02-07T12:26:58.562Z,100446.00
2023-02-07T12:32:07.744Z,100430.44
2023-02-07T12:37:42.589Z,100432.34
2023-02-07T12:43:04.026Z,100430.47
2023-02-07T12:48:32.344Z,100419.31
2023-02-07T12:53:43.707Z,100417.78
2023-02-07T12:58:51.354Z,100405.41
2023-02-07T13:04:18.007Z,100402.88
2023-02-07T13:09:28.218Z,100396.91
2023-02-07T13:15:11.670Z,100403.06
2023-02-07T13:20:37.958Z,100401.50
2023-02-07T13:25:46.517Z,100395.50
2023-02-07T13:30:49.631Z,100397.22
2023-02-07T13:35:53.444Z,100396.53
2023-02-07T13:41:54.828Z,100380.78
2023-02-07T13:47:12.815Z,100389.78
2023-02-07T13:52:38.532Z,100393.28
2023-02-07T13:58:00.623Z,100398.16
2023-02-07T14:03:06.508Z,100393.47
2023-02-07T14:08:17.038Z,100394.88
2023-02-07T14:13:27.394Z,100398.06
2023-02-07T14:18:41.112Z,100389.97
2023-02-07T14:24:01.529Z,100393.91
2023-02-07T14:29:24.497Z,100395.50
2023-02-07T14:34:32.655Z,100395.88
2023-02-07T14:39:34.588Z,100393.91
2023-02-07T14:44:39.944Z,100401.72
2023-02-07T14:49:49.996Z,100398.91
2023-02-07T14:54:51.631Z,100404.94
2023-02-07T15:00:13.512Z,100399.81
2023-02-07T15:05:32.990Z,100396.00
2023-02-07T15:10:42.001Z,100407.06
2023-02-07T15:15:47.547Z,100398.63
2023-02-07T15:20:57.493Z,100399.53
2023-02-07T15:26:05.178Z,100398.59
2023-02-07T15:31:14.163Z,100404.66
2023-02-07T15:36:36.200Z,100401.47
2023-02-07T15:41:37.881Z,100395.00
2023-02-07T15:46:52.990Z,100400.16
2023-02-07T15:52:09.012Z,100408.78
2023-02-07T15:57:33.874Z,100413.72
2023-02-07T16:02:40.209Z,100418.66
2023-02-07T16:07:47.807Z,100414.22
2023-02-07T16:13:11.341Z,100426.22
2023-02-07T16:18:34.470Z,100420.84
2023-02-07T16:23:36.705Z,100430.13
2023-02-07T16:28:38.476Z,100443.09
2023-02-07T16:33:40.651Z,100448.88
2023-02-07T16:38:43.091Z,100450.44
2023-02-07T16:43:45.037Z,100463.28
2023-02-07T16:48:46.714Z,100465.78
2023-02-07T16:53:48.991Z,100484.81
2023-02-07T16:58:50.920Z,100489.00
2023-02-07T17:03:52.634Z,100488.13
2023-02-07T17:08:54.466Z,100493.03
2023-02-07T17:13:57.912Z,100492.19
2023-02-07T17:18:59.816Z,100502.53
2023-02-07T17:24:01.968Z,100502.34
2023-02-07T17:29:05.365Z,100514.47
2023-02-07T17:34:08.074Z,100504.84
2023-02-07T17:39:15.256Z,100511.69
2023-02-07T17:44:21.792Z,100508.31
2023-02-07T17:49:25.363Z,100521.31
2023-02-07T17:54:28.064Z,100519.47
2023-02-07T17:59:32.414Z,100525.47
2023-02-07T18:04:34.911Z,100515.78
2023-02-07T18:09:37.467Z,100518.56
2023-02-07T18:14:47.598Z,100525.63
2023-02-07T18:19:51.317Z,100529.63
2023-02-07T18:24:54.962Z,100529.69
2023-02-07T18:29:57.582Z,100522.50
2023-02-07T18:35:00.303Z,100526.78
2023-02-07T18:40:04.176Z,100531.00
2023-02-07T18:45:07.563Z,100535.19
2023-02-07T18:50:12.536Z,100531.00
2023-02-07T18:55:16.893Z,100539.97
2023-02-07T19:00:19.690Z,100547.09
2023-02-07T19:05:23.487Z,100546.34
2023-02-07T19:10:26.258Z,100546.09
2023-02-07T19:15:28.507Z,100552.09
2023-02-07T19:20:30.997Z,100557.19
2023-02-07T19:25:35.394Z,100548.25
2023-02-07T19:30:44.676Z,100571.53
2023-02-07T19:35:48.789Z,100573.25
2023-02-07T19:41:03.338Z,100585.13
2023-02-07T19:46:09.247Z,100590.56
2023-02-07T19:51:25.433Z,100585.03
2023-02-07T19:56:33.872Z,100590.06
2023-02-07T20:01:38.772Z,100589.03
2023-02-07T20:06:43.746Z,100590.75
2023-02-07T20:11:46.419Z,100588.03
2023-02-07T20:16:49.932Z,100595.91
2023-02-07T20:21:52.676Z,100601.84
2023-02-07T20:26:55.459Z,100598.22
2023-02-07T20:31:59.449Z,100596.38
2023-02-07T20:37:01.999Z,100597.72
2023-02-07T20:42:04.729Z,100592.75
2023-02-07T20:47:07.052Z,100601.56
2023-02-07T20:52:09.682Z,100595.03
2023-02-07T20:57:11.977Z,100597.88
2023-02-07T21:02:17.144Z,100599.44
2023-02-07T21:07:19.644Z,100596.09
2023-02-07T21:12:23.501Z,100596.09
2023-02-07T21:17:25.497Z,100592.38
2023-02-07T21:22:28.818Z,100591.63
2023-02-07T21:27:30.592Z,100586.88
2023-02-07T21:32:32.597Z,100585.22
2023-02-07T21:37:35.154Z,100590.34
2023-02-07T21:42:36.837Z,100601.22
2023-02-07T21:47:38.507Z,100597.28
2023-02-07T21:52:40.206Z,100606.34
2023-02-07T21:57:41.810Z,100604.63
2023-02-07T22:02:43.484Z,100611.53
2023-02-07T22:07:45.178Z,100609.72
2023-02-07T22:12:46.813Z,100621.78
2023-02-07T22:17:48.471Z,100620.06
2023-02-07T22:22:50.161Z,100626.06
2023-02-07T22:27:51.824Z,100625.66
2023-02-07T22:32:53.484Z,100628.31
2023-02-07T22:37:55.118Z,100633.97
2023-02-07T22:42:56.778Z,100634.69
2023-02-07T22:47:58.488Z,100633.84
2023-02-07T22:53:00.245Z,100641.09
2023-02-07T22:58:01.899Z,100636.25
2023-02-07T23:03:03.621Z,100641.38
2023-02-07T23:08:06.240Z,100643.22
2023-02-07T23:13:08.289Z,100649.88
2023-02-07T23:18:09.949Z,100644.34
2023-02-07T23:23:12.933Z,100643.03
2023-02-07T23:28:15.601Z,100648.69
2023-02-07T23:33:17.375Z,100651.06
2023-02-07T23:38:19.045Z,100649.88
2023-02-07T23:43:20.833Z,100650.00
2023-02-07T23:48:22.536Z,100655.78
2023-02-07T23:53:25.344Z,100659.78
2023-02-07T23:58:27.763Z,100657.78
